createdAt,value
2022-11-16T00:00:43.482Z,9.88
2022-11-16T00:03:15.748Z,9.83
2022-11-16T00:05:47.793Z,9.86
2022-11-16T00:08:19.809Z,9.90
2022-11-16T00:10:52.779Z,9.89
2022-11-16T00:13:24.915Z,9.87
2022-11-16T00:16:00.904Z,9.82
2022-11-16T00:18:33.621Z,9.82
2022-11-16T00:21:08.234Z,9.83
2022-11-16T00:23:40.900Z,9.87
2022-11-16T00:26:15.019Z,9.90
2022-11-16T00:28:47.088Z,9.89
2022-11-16T00:31:20.100Z,9.89
2022-11-16T00:33:53.226Z,9.89
2022-11-16T00:36:26.172Z,9.88
2022-11-16T00:38:58.278Z,9.92
2022-11-16T00:41:30.284Z,9.91
2022-11-16T00:44:02.460Z,9.82
2022-11-16T00:46:35.033Z,9.90
2022-11-16T00:49:08.368Z,9.79
2022-11-16T00:51:40.787Z,9.88
2022-11-16T00:54:13.448Z,9.89
2022-11-16T00:56:45.460Z,9.84
2022-11-16T00:59:17.665Z,9.83
2022-11-16T01:01:49.771Z,9.87
2022-11-16T01:04:22.203Z,9.88
2022-11-16T01:06:54.176Z,9.89
2022-11-16T01:09:29.852Z,9.93
2022-11-16T01:12:10.791Z,9.93
2022-11-16T01:14:46.449Z,9.93
2022-11-16T01:17:18.861Z,9.87
2022-11-16T01:19:51.140Z,9.84
2022-11-16T01:22:23.189Z,9.88
2022-11-16T01:24:55.261Z,9.86
2022-11-16T01:27:27.731Z,9.85
2022-11-16T01:30:00.441Z,9.84
2022-11-16T01:32:32.409Z,9.90
2022-11-16T01:35:05.645Z,9.91
2022-11-16T01:37:39.219Z,9.92
2022-11-16T01:40:14.219Z,9.91
2022-11-16T01:42:48.140Z,9.94
2022-11-16T01:45:25.033Z,9.95
2022-11-16T01:48:00.551Z,9.95
2022-11-16T01:50:37.661Z,9.94
2022-11-16T01:53:13.177Z,9.95
2022-11-16T01:55:54.760Z,9.93
2022-11-16T01:58:35.004Z,9.91
2022-11-16T02:01:17.527Z,9.96
2022-11-16T02:03:52.419Z,9.95
2022-11-16T02:06:34.346Z,9.95
2022-11-16T02:09:46.363Z,9.84
2022-11-16T02:12:39.430Z,9.88
2022-11-16T02:15:23.028Z,9.93
2022-11-16T02:18:14.675Z,9.93
2022-11-16T02:21:10.473Z,9.93
2022-11-16T02:24:24.496Z,9.94
2022-11-16T02:27:54.021Z,9.92
2022-11-16T02:30:27.138Z,9.92
2022-11-16T02:33:05.194Z,9.95
2022-11-16T02:35:43.485Z,9.94
2022-11-16T02:38:19.539Z,9.82
2022-11-16T02:40:54.864Z,9.94
2022-11-16T02:43:35.973Z,9.95
2022-11-16T02:46:13.167Z,9.92
2022-11-16T02:48:49.084Z,9.96
2022-11-16T02:51:24.144Z,9.90
2022-11-16T02:54:08.611Z,9.73
2022-11-16T02:56:51.612Z,9.79
2022-11-16T02:59:27.191Z,9.87
2022-11-16T03:02:04.105Z,9.83
2022-11-16T03:04:41.964Z,9.67
2022-11-16T03:07:18.803Z,9.72
2022-11-16T03:09:54.147Z,9.75
2022-11-16T03:12:31.487Z,9.80
2022-11-16T03:15:07.296Z,9.79
2022-11-16T03:17:44.672Z,9.76
2022-11-16T03:20:22.486Z,9.76
2022-11-16T03:22:59.687Z,9.74
2022-11-16T03:25:37.448Z,9.78
2022-11-16T03:28:15.192Z,9.74
2022-11-16T03:30:53.984Z,9.73
2022-11-16T03:33:31.718Z,9.73
2022-11-16T03:36:09.471Z,9.70
2022-11-16T03:38:44.656Z,9.56
2022-11-16T03:41:20.063Z,9.54
2022-11-16T03:43:54.743Z,9.55
2022-11-16T03:46:27.306Z,9.52
2022-11-16T03:49:03.440Z,9.56
2022-11-16T03:51:41.717Z,9.27
2022-11-16T03:54:14.142Z,9.30
2022-11-16T03:56:46.626Z,9.38
2022-11-16T03:59:18.915Z,9.47
2022-11-16T04:01:51.032Z,9.58
2022-11-16T04:04:41.099Z,9.61
2022-11-16T04:07:31.481Z,9.67
2022-11-16T04:10:21.063Z,9.66
2022-11-16T04:13:11.468Z,9.67
2022-11-16T04:16:01.456Z,9.66
2022-11-16T04:18:50.752Z,9.60
2022-11-16T04:21:43.914Z,9.61
2022-11-16T04:24:20.104Z,9.60
2022-11-16T04:27:13.213Z,9.56
2022-11-16T04:29:46.959Z,9.60
2022-11-16T04:32:37.409Z,9.65
2022-11-16T04:35:27.878Z,9.63
2022-11-16T04:38:01.088Z,9.61
2022-11-16T04:40:36.493Z,9.63
2022-11-16T04:43:08.834Z,9.64
2022-11-16T04:46:01.441Z,9.65
2022-11-16T04:48:40.769Z,9.61
2022-11-16T04:51:13.876Z,9.61
2022-11-16T04:53:45.950Z,9.71
2022-11-16T04:56:23.490Z,9.67
2022-11-16T04:58:55.662Z,9.62
2022-11-16T05:01:41.796Z,9.65
2022-11-16T05:04:13.926Z,9.53
2022-11-16T05:06:47.128Z,9.54
2022-11-16T05:09:19.391Z,9.53
2022-11-16T05:11:51.492Z,9.48
2022-11-16T05:14:23.820Z,9.45
2022-11-16T05:16:58.351Z,9.56
2022-11-16T05:19:48.876Z,9.54
2022-11-16T05:22:21.158Z,9.54
2022-11-16T05:24:54.045Z,9.54
2022-11-16T05:27:30.169Z,9.50
2022-11-16T05:30:03.060Z,9.42
2022-11-16T05:32:36.080Z,9.49
2022-11-16T05:35:10.632Z,9.50
2022-11-16T05:37:43.083Z,9.50
2022-11-16T05:40:16.054Z,9.47
2022-11-16T05:43:02.059Z,9.54
2022-11-16T05:45:36.326Z,9.26
2022-11-16T05:48:08.900Z,9.40
2022-11-16T05:50:42.966Z,9.45
2022-11-16T05:53:25.663Z,9.38
2022-11-16T05:55:58.148Z,9.42
2022-11-16T05:58:31.440Z,9.26
2022-11-16T06:01:04.530Z,9.31
2022-11-16T06:03:37.414Z,9.19
2022-11-16T06:06:10.416Z,9.26
2022-11-16T06:08:43.110Z,9.30
2022-11-16T06:11:18.881Z,9.32
2022-11-16T06:13:51.333Z,9.19
2022-11-16T06:16:30.966Z,9.13
2022-11-16T06:19:03.554Z,9.17
2022-11-16T06:21:36.061Z,9.23
2022-11-16T06:24:11.951Z,9.31
2022-11-16T06:26:44.173Z,9.40
2022-11-16T06:29:17.412Z,9.49
2022-11-16T06:31:50.230Z,9.38
2022-11-16T06:34:41.130Z,9.37
2022-11-16T06:38:56.566Z,9.48
2022-11-16T06:41:28.998Z,9.32
2022-11-16T06:44:01.685Z,9.40
2022-11-16T06:46:57.854Z,9.46
2022-11-16T06:49:30.653Z,9.40
2022-11-16T06:52:04.743Z,9.28
2022-11-16T06:54:37.343Z,9.30
2022-11-16T06:57:10.738Z,9.30
2022-11-16T06:59:43.891Z,9.45
2022-11-16T07:02:16.796Z,9.44
2022-11-16T07:04:50.010Z,9.57
2022-11-16T07:07:22.570Z,9.56
2022-11-16T07:09:55.311Z,9.53
2022-11-16T07:12:27.838Z,9.55
2022-11-16T07:15:01.084Z,9.57
2022-11-16T07:17:35.023Z,9.53
2022-11-16T07:20:09.447Z,9.46
2022-11-16T07:22:42.735Z,9.42
2022-11-16T07:25:16.045Z,9.51
2022-11-16T07:27:48.460Z,9.46
2022-11-16T07:30:22.106Z,9.48
2022-11-16T07:33:05.450Z,9.63
2022-11-16T07:36:01.492Z,9.63
2022-11-16T07:38:34.765Z,9.66
2022-11-16T07:41:10.933Z,9.63
2022-11-16T07:43:53.047Z,9.46
2022-11-16T07:46:47.470Z,9.45
2022-11-16T07:49:21.099Z,9.47
2022-11-16T07:51:59.522Z,9.61
2022-11-16T07:54:50.543Z,9.51
2022-11-16T07:57:23.038Z,9.28
2022-11-16T07:59:56.638Z,9.33
2022-11-16T08:02:30.048Z,9.38
2022-11-16T08:05:02.475Z,9.32
2022-11-16T08:07:36.346Z,9.26
2022-11-16T08:10:10.242Z,9.35
2022-11-16T08:12:43.239Z,9.51
2022-11-16T08:15:16.089Z,9.59
2022-11-16T08:17:48.732Z,9.61
2022-11-16T08:20:22.229Z,9.53
2022-11-16T08:22:54.607Z,9.54
2022-11-16T08:25:27.325Z,9.64
2022-11-16T08:28:00.238Z,9.59
2022-11-16T08:30:32.606Z,9.53
2022-11-16T08:33:08.264Z,9.66
2022-11-16T08:35:40.776Z,9.74
2022-11-16T08:38:12.935Z,9.70
2022-11-16T08:40:45.191Z,9.73
2022-11-16T08:43:17.996Z,9.68
2022-11-16T08:45:53.287Z,9.80
2022-11-16T08:48:25.951Z,9.88
2022-11-16T08:51:17.047Z,9.78
2022-11-16T08:53:58.435Z,9.70
2022-11-16T08:56:31.007Z,9.78
2022-11-16T08:59:03.520Z,9.78
2022-11-16T09:01:36.600Z,9.87
2022-11-16T09:04:12.440Z,9.80
2022-11-16T09:06:45.191Z,9.93
2022-11-16T09:09:17.370Z,9.99
2022-11-16T09:11:52.082Z,10.05
2022-11-16T09:14:23.137Z,10.10
2022-11-16T09:16:55.901Z,10.15
2022-11-16T09:19:28.185Z,10.22
2022-11-16T09:22:00.354Z,10.27
2022-11-16T09:24:34.446Z,10.25
2022-11-16T09:27:06.842Z,10.28
2022-11-16T09:29:39.897Z,10.17
2022-11-16T09:32:12.163Z,10.09
2022-11-16T09:34:45.250Z,9.98
2022-11-16T09:37:17.563Z,10.09
2022-11-16T09:39:49.654Z,10.14
2022-11-16T09:42:37.063Z,10.17
2022-11-16T09:45:16.828Z,10.10
2022-11-16T09:47:54.085Z,9.95
2022-11-16T09:50:40.318Z,9.90
2022-11-16T09:53:26.785Z,10.01
2022-11-16T09:56:00.890Z,9.90
2022-11-16T09:58:39.128Z,9.93
2022-11-16T10:01:24.696Z,10.01
2022-11-16T10:04:03.728Z,10.08
2022-11-16T10:06:46.115Z,10.11
2022-11-16T10:09:18.583Z,10.02
2022-11-16T10:12:03.185Z,9.93
2022-11-16T10:15:04.898Z,10.02
2022-11-16T10:17:50.419Z,10.02
2022-11-16T10:20:42.703Z,9.86
2022-11-16T10:23:23.239Z,9.96
2022-11-16T10:25:59.236Z,10.06
2022-11-16T10:28:52.377Z,10.00
2022-11-16T10:31:33.742Z,10.13
2022-11-16T10:34:10.466Z,10.18
2022-11-16T10:36:43.178Z,10.12
2022-11-16T10:39:18.216Z,10.16
2022-11-16T10:41:51.523Z,10.12
2022-11-16T10:44:33.530Z,10.12
2022-11-16T10:47:11.118Z,10.14
2022-11-16T10:49:49.071Z,10.19
2022-11-16T10:52:21.320Z,10.17
2022-11-16T10:54:53.921Z,10.22
2022-11-16T10:57:26.625Z,10.11
2022-11-16T10:59:59.421Z,10.08
2022-11-16T11:02:36.512Z,10.15
2022-11-16T11:05:17.450Z,10.26
2022-11-16T11:07:59.362Z,10.21
2022-11-16T11:10:34.192Z,10.25
2022-11-16T11:13:18.771Z,10.27
2022-11-16T11:15:52.094Z,10.29
2022-11-16T11:18:30.324Z,10.21
2022-11-16T11:21:14.709Z,10.15
2022-11-16T11:23:53.130Z,10.18
2022-11-16T11:26:36.853Z,10.24
2022-11-16T11:29:22.019Z,10.31
2022-11-16T11:31:56.327Z,10.25
2022-11-16T11:34:30.463Z,10.23
2022-11-16T11:37:04.957Z,10.04
2022-11-16T11:39:38.462Z,10.03
2022-11-16T11:42:24.464Z,10.04
2022-11-16T11:45:03.623Z,10.01
2022-11-16T11:47:57.996Z,10.00
2022-11-16T11:50:43.582Z,10.02
2022-11-16T11:53:45.306Z,10.03
2022-11-16T11:56:18.680Z,10.06
2022-11-16T11:58:52.075Z,10.00
2022-11-16T12:01:49.220Z,9.88
2022-11-16T12:04:55.675Z,9.86
2022-11-16T12:07:39.306Z,9.83
2022-11-16T12:10:22.630Z,9.86
2022-11-16T12:13:04.871Z,9.86
2022-11-16T12:15:49.041Z,9.64
2022-11-16T12:18:44.405Z,9.82
2022-11-16T12:21:23.515Z,9.95
2022-11-16T12:24:15.821Z,9.92
2022-11-16T12:26:57.639Z,9.80
2022-11-16T12:29:37.313Z,9.75
2022-11-16T12:32:41.149Z,9.83
2022-11-16T12:35:45.974Z,9.82
2022-11-16T12:38:30.721Z,9.97
2022-11-16T12:41:08.756Z,9.92
2022-11-16T12:43:53.839Z,9.93
2022-11-16T12:46:28.795Z,10.05
2022-11-16T12:49:32.566Z,10.07
2022-11-16T12:52:17.573Z,10.05
2022-11-16T12:55:26.789Z,10.03
2022-11-16T12:58:09.225Z,9.87
2022-11-16T13:00:53.403Z,9.79
2022-11-16T13:03:31.752Z,9.67
2022-11-16T13:06:07.896Z,9.73
2022-11-16T13:08:46.760Z,9.66
2022-11-16T13:11:24.558Z,9.73
2022-11-16T13:14:01.343Z,9.82
2022-11-16T13:16:35.465Z,9.82
2022-11-16T13:19:13.090Z,9.89
2022-11-16T13:21:54.146Z,9.78
2022-11-16T13:24:38.857Z,9.84
2022-11-16T13:27:24.663Z,9.84
2022-11-16T13:30:04.544Z,9.79
2022-11-16T13:32:57.144Z,9.55
2022-11-16T13:35:30.882Z,9.61
2022-11-16T13:38:03.391Z,9.70
2022-11-16T13:40:36.332Z,9.79
2022-11-16T13:43:20.257Z,9.85
2022-11-16T13:45:59.490Z,9.83
2022-11-16T13:48:35.988Z,9.84
2022-11-16T13:51:18.428Z,9.84
2022-11-16T13:56:52.069Z,9.48
2022-11-16T13:59:29.276Z,9.35
2022-11-16T14:02:03.860Z,9.36
2022-11-16T14:04:54.471Z,9.58
2022-11-16T14:07:40.787Z,9.34
2022-11-16T14:10:34.624Z,9.41
2022-11-16T14:13:20.473Z,9.62
2022-11-16T14:16:30.892Z,9.56
2022-11-16T14:19:06.273Z,9.59
2022-11-16T14:21:48.901Z,9.64
2022-11-16T14:24:32.529Z,9.52
2022-11-16T14:27:16.197Z,9.58
2022-11-16T14:29:58.241Z,9.52
2022-11-16T14:32:38.297Z,9.51
2022-11-16T14:35:28.751Z,9.61
2022-11-16T14:38:04.210Z,9.59
2022-11-16T14:40:47.541Z,9.54
2022-11-16T14:43:24.680Z,9.48
2022-11-16T14:46:00.513Z,9.44
2022-11-16T14:48:35.160Z,9.54
2022-11-16T14:51:12.605Z,9.51
2022-11-16T14:53:49.951Z,9.43
2022-11-16T14:56:22.806Z,9.38
2022-11-16T14:58:57.601Z,9.36
2022-11-16T15:01:32.608Z,9.35
2022-11-16T15:04:07.998Z,9.47
2022-11-16T15:06:44.278Z,9.52
2022-11-16T15:09:22.923Z,9.48
2022-11-16T15:12:21.722Z,9.51
2022-11-16T15:14:57.511Z,9.40
2022-11-16T15:17:33.414Z,9.26
2022-11-16T15:20:16.151Z,9.36
2022-11-16T15:22:51.642Z,9.39
2022-11-16T15:25:30.576Z,9.32
2022-11-16T15:28:04.308Z,9.41
2022-11-16T15:30:40.267Z,9.47
2022-11-16T15:33:17.237Z,9.46
2022-11-16T15:35:49.392Z,9.50
2022-11-16T15:38:24.735Z,9.38
2022-11-16T15:40:59.900Z,9.46
2022-11-16T15:43:41.084Z,9.44
2022-11-16T15:46:18.375Z,9.42
2022-11-16T15:48:51.645Z,9.27
2022-11-16T15:51:24.949Z,9.32
2022-11-16T15:54:23.757Z,9.26
2022-11-16T15:56:59.579Z,9.22
2022-11-16T15:59:35.095Z,9.12
2022-11-16T16:02:16.350Z,9.15
2022-11-16T16:04:49.396Z,9.14
2022-11-16T16:07:41.966Z,9.17
2022-11-16T16:10:27.267Z,9.14
2022-11-16T16:12:59.206Z,9.20
2022-11-16T16:15:37.012Z,9.18
2022-11-16T16:18:40.857Z,8.83
2022-11-16T16:21:14.774Z,8.92
2022-11-16T16:23:51.891Z,9.08
2022-11-16T16:26:25.445Z,9.05
2022-11-16T16:28:58.799Z,9.14
2022-11-16T16:31:32.757Z,9.02
2022-11-16T16:34:15.171Z,9.07
2022-11-16T16:36:48.089Z,9.07
2022-11-16T16:39:20.685Z,9.19
2022-11-16T16:41:53.681Z,9.10
2022-11-16T16:44:26.577Z,9.04
2022-11-16T16:46:59.718Z,9.12
2022-11-16T16:49:33.167Z,9.12
2022-11-16T16:52:07.196Z,9.18
2022-11-16T16:54:40.512Z,9.04
2022-11-16T16:57:17.271Z,9.04
2022-11-16T16:59:50.754Z,9.06
2022-11-16T17:02:25.561Z,9.01
2022-11-16T17:04:58.901Z,8.92
2022-11-16T17:07:32.458Z,8.88
2022-11-16T17:10:06.442Z,8.88
2022-11-16T17:12:40.582Z,8.74
2022-11-16T17:15:19.211Z,8.77
2022-11-16T17:17:53.046Z,8.79
2022-11-16T17:20:26.207Z,8.80
2022-11-16T17:23:00.173Z,8.67
2022-11-16T17:25:33.735Z,8.69
2022-11-16T17:28:07.411Z,8.67
2022-11-16T17:30:43.006Z,8.68
2022-11-16T17:33:26.226Z,8.76
2022-11-16T17:36:03.539Z,8.83
2022-11-16T17:38:38.296Z,8.76
2022-11-16T17:41:13.861Z,8.81
2022-11-16T17:43:47.739Z,8.71
2022-11-16T17:46:22.431Z,8.76
2022-11-16T17:48:55.242Z,8.74
2022-11-16T17:51:30.486Z,8.68
2022-11-16T17:54:04.743Z,8.63
2022-11-16T17:56:39.419Z,8.58
2022-11-16T17:59:13.742Z,8.64
2022-11-16T18:01:47.244Z,8.56
2022-11-16T18:04:21.599Z,8.27
2022-11-16T18:06:56.516Z,8.41
2022-11-16T18:09:31.239Z,8.59
2022-11-16T18:12:06.008Z,8.58
2022-11-16T18:14:42.489Z,8.64
2022-11-16T18:17:18.407Z,8.62
2022-11-16T18:19:52.097Z,8.71
2022-11-16T18:22:26.263Z,8.64
2022-11-16T18:25:02.241Z,8.54
2022-11-16T18:27:36.453Z,8.37
2022-11-16T18:30:11.655Z,8.42
2022-11-16T18:32:45.068Z,8.37
2022-11-16T18:35:19.099Z,8.44
2022-11-16T18:37:55.838Z,8.45
2022-11-16T18:40:31.685Z,8.41
2022-11-16T18:43:07.256Z,8.50
2022-11-16T18:45:41.618Z,8.53
2022-11-16T18:48:17.301Z,8.54
2022-11-16T18:50:53.679Z,8.43
2022-11-16T18:53:28.190Z,8.35
2022-11-16T18:56:01.156Z,8.30
2022-11-16T18:58:49.750Z,8.44
2022-11-16T19:01:27.543Z,8.53
2022-11-16T19:04:01.909Z,8.35
2022-11-16T19:06:36.627Z,8.08
2022-11-16T19:09:11.582Z,8.04
2022-11-16T19:11:48.580Z,7.96
2022-11-16T19:14:22.722Z,8.02
2022-11-16T19:16:57.545Z,7.87
2022-11-16T19:19:31.633Z,7.80
2022-11-16T19:22:07.036Z,7.93
2022-11-16T19:24:41.163Z,7.85
2022-11-16T19:27:16.789Z,7.82
2022-11-16T19:29:51.876Z,7.83
2022-11-16T19:32:26.480Z,7.83
2022-11-16T19:35:00.745Z,7.79
2022-11-16T19:37:35.756Z,7.92
2022-11-16T19:40:12.001Z,7.98
2022-11-16T19:42:46.946Z,8.12
2022-11-16T19:45:22.179Z,8.15
2022-11-16T19:47:59.224Z,7.98
2022-11-16T19:50:33.800Z,7.85
2022-11-16T19:53:08.168Z,7.60
2022-11-16T19:55:42.141Z,7.78
2022-11-16T19:58:17.050Z,7.84
2022-11-16T20:00:50.781Z,7.67
2022-11-16T20:03:25.465Z,7.76
2022-11-16T20:06:07.576Z,7.71
2022-11-16T20:08:42.010Z,7.59
2022-11-16T20:11:17.173Z,7.61
2022-11-16T20:13:51.301Z,7.68
2022-11-16T20:16:27.967Z,7.59
2022-11-16T20:19:00.916Z,7.77
2022-11-16T20:21:35.595Z,7.77
2022-11-16T20:24:11.667Z,7.82
2022-11-16T20:26:46.317Z,7.73
2022-11-16T20:29:20.887Z,7.50
2022-11-16T20:31:54.118Z,7.60
2022-11-16T20:34:26.898Z,7.55
2022-11-16T20:36:59.104Z,7.58
2022-11-16T20:39:31.745Z,7.62
2022-11-16T20:42:04.216Z,7.67
2022-11-16T20:44:36.885Z,7.62
2022-11-16T20:47:09.235Z,7.54
2022-11-16T20:49:41.492Z,7.75
2022-11-16T20:52:13.796Z,7.87
2022-11-16T20:54:46.309Z,7.83
2022-11-16T20:57:18.613Z,7.77
2022-11-16T20:59:51.855Z,7.75
2022-11-16T21:02:24.859Z,7.87
2022-11-16T21:05:00.215Z,7.88
2022-11-16T21:07:33.188Z,7.91
2022-11-16T21:10:22.313Z,7.95
2022-11-16T21:13:12.705Z,7.81
2022-11-16T21:15:45.456Z,7.78
2022-11-16T21:18:17.611Z,7.78
2022-11-16T21:20:50.310Z,7.68
2022-11-16T21:23:23.087Z,7.77
2022-11-16T21:25:56.037Z,7.69
2022-11-16T21:28:28.458Z,7.84
2022-11-16T21:31:05.584Z,7.66
2022-11-16T21:33:40.641Z,7.81
2022-11-16T21:36:15.990Z,7.79
2022-11-16T21:38:49.076Z,7.68
2022-11-16T21:41:23.016Z,7.74
2022-11-16T21:43:57.734Z,7.70
2022-11-16T21:46:30.192Z,7.65
2022-11-16T21:49:02.466Z,7.73
2022-11-16T21:51:34.939Z,7.75
2022-11-16T21:54:07.759Z,7.87
2022-11-16T21:56:39.846Z,7.87
2022-11-16T21:59:12.556Z,7.69
2022-11-16T22:02:00.989Z,7.88
2022-11-16T22:04:51.459Z,7.91
2022-11-16T22:07:37.893Z,7.89
2022-11-16T22:10:12.585Z,7.84
2022-11-16T22:12:44.671Z,7.92
2022-11-16T22:15:17.201Z,7.95
2022-11-16T22:17:49.339Z,7.93
2022-11-16T22:20:21.844Z,7.78
2022-11-16T22:22:54.462Z,7.82
2022-11-16T22:25:27.000Z,7.81
2022-11-16T22:28:19.784Z,7.82
2022-11-16T22:30:59.569Z,7.94
2022-11-16T22:33:32.558Z,7.80
2022-11-16T22:36:05.999Z,7.72
2022-11-16T22:38:39.005Z,7.68
2022-11-16T22:41:11.848Z,7.60
2022-11-16T22:43:44.106Z,7.83
2022-11-16T22:46:16.491Z,7.79
2022-11-16T22:48:49.451Z,7.86
2022-11-16T22:51:23.645Z,7.69
2022-11-16T22:53:56.716Z,7.61
2022-11-16T22:56:29.922Z,7.86
2022-11-16T22:59:02.504Z,7.93
2022-11-16T23:01:34.788Z,7.99
2022-11-16T23:04:07.922Z,7.97
2022-11-16T23:06:40.218Z,8.01
2022-11-16T23:09:12.281Z,7.84
2022-11-16T23:12:02.259Z,7.85
2022-11-16T23:14:52.040Z,8.07
2022-11-16T23:17:24.647Z,8.15
2022-11-16T23:20:17.858Z,8.19
2022-11-16T23:23:07.940Z,8.15
2022-11-16T23:25:58.046Z,8.10
2022-11-16T23:28:30.202Z,8.05
2022-11-16T23:31:02.608Z,8.04
2022-11-16T23:33:45.145Z,8.16
2022-11-16T23:36:17.816Z,8.24
2022-11-16T23:38:50.500Z,8.15
2022-11-16T23:41:40.783Z,8.11
2022-11-16T23:44:13.064Z,8.11
2022-11-16T23:46:45.685Z,8.09
2022-11-16T23:49:18.456Z,8.10
2022-11-16T23:51:50.642Z,8.05
2022-11-16T23:54:22.988Z,8.02
2022-11-16T23:56:55.412Z,8.04
2022-11-16T23:59:27.897Z,8.06
